createdAt,value
2019-06-15T00:00:16.347Z,10.50
2019-06-15T00:02:43.336Z,9.83
2019-06-15T00:05:10.545Z,9.30
2019-06-15T00:07:37.396Z,10.05
2019-06-15T00:10:05.436Z,9.98
2019-06-15T00:12:32.258Z,10.18
2019-06-15T00:14:59.090Z,9.33
2019-06-15T00:17:25.866Z,10.63
2019-06-15T00:19:52.692Z,10.90
2019-06-15T00:22:19.473Z,9.27
2019-06-15T00:24:46.305Z,10.05
2019-06-15T00:27:13.132Z,10.00
2019-06-15T00:29:39.991Z,10.60
2019-06-15T00:32:06.769Z,10.50
2019-06-15T00:34:33.549Z,11.00
2019-06-15T00:37:00.380Z,10.50
2019-06-15T00:39:27.225Z,9.93
2019-06-15T00:41:54.017Z,9.55
2019-06-15T00:44:20.799Z,9.45
2019-06-15T00:46:47.633Z,10.38
2019-06-15T00:49:14.413Z,9.23
2019-06-15T00:51:41.244Z,8.30
2019-06-15T00:54:08.040Z,8.80
2019-06-15T00:56:34.877Z,7.50
2019-06-15T00:59:01.818Z,9.58
2019-06-15T01:01:28.665Z,8.70
2019-06-15T01:03:55.449Z,9.48
2019-06-15T01:06:22.340Z,7.30
2019-06-15T01:08:49.924Z,9.50
2019-06-15T01:11:16.758Z,9.03
2019-06-15T01:13:43.532Z,9.23
2019-06-15T01:16:10.360Z,9.87
2019-06-15T01:18:37.193Z,9.95
2019-06-15T01:21:04.033Z,9.70
2019-06-15T01:23:30.867Z,7.95
2019-06-15T01:25:57.694Z,10.20
2019-06-15T01:28:24.525Z,9.60
2019-06-15T01:30:51.308Z,10.10
2019-06-15T01:33:18.135Z,8.93
2019-06-15T01:35:44.909Z,8.23
2019-06-15T01:38:11.737Z,7.90
2019-06-15T01:40:38.968Z,7.97
2019-06-15T01:43:05.754Z,8.20
2019-06-15T01:45:32.580Z,7.25
2019-06-15T01:47:59.360Z,8.08
2019-06-15T01:50:26.200Z,8.25
2019-06-15T01:52:53.035Z,8.13
2019-06-15T01:55:21.764Z,8.80
2019-06-15T01:57:48.596Z,9.13
2019-06-15T02:00:25.910Z,9.13
2019-06-15T02:02:52.805Z,8.00
2019-06-15T02:05:19.693Z,9.18
2019-06-15T02:07:46.572Z,9.30
2019-06-15T02:10:15.604Z,9.33
2019-06-15T02:12:42.425Z,8.23
2019-06-15T02:15:09.547Z,7.55
2019-06-15T02:17:36.372Z,8.65
2019-06-15T02:20:08.256Z,8.50
2019-06-15T02:22:35.088Z,9.53
2019-06-15T02:25:01.995Z,8.15
2019-06-15T02:27:29.907Z,7.33
2019-06-15T02:29:56.697Z,6.03
2019-06-15T02:32:23.532Z,7.10
2019-06-15T02:34:50.377Z,6.50
2019-06-15T02:37:17.241Z,5.50
2019-06-15T02:39:43.982Z,6.00
2019-06-15T02:42:10.833Z,6.03
2019-06-15T02:44:37.621Z,5.10
2019-06-15T02:47:04.402Z,4.55
2019-06-15T02:49:31.228Z,3.73
2019-06-15T02:51:58.252Z,4.58
2019-06-15T02:54:25.054Z,4.00
2019-06-15T02:56:51.871Z,4.10
2019-06-15T02:59:18.700Z,4.60
2019-06-15T03:01:45.548Z,5.10
2019-06-15T03:06:19.915Z,3.93
2019-06-15T03:08:47.053Z,4.25
2019-06-15T03:11:13.834Z,3.85
2019-06-15T03:13:41.670Z,4.83
2019-06-15T03:16:08.852Z,4.55
2019-06-15T03:18:35.689Z,4.30
2019-06-15T03:21:02.486Z,4.85
2019-06-15T03:23:29.308Z,4.30
2019-06-15T03:26:05.056Z,4.00
2019-06-15T03:28:24.721Z,4.67
2019-06-15T03:30:51.558Z,4.20
2019-06-15T03:33:18.393Z,4.10
2019-06-15T03:35:45.169Z,4.85
2019-06-15T03:38:11.996Z,4.22
2019-06-15T03:40:40.381Z,4.42
2019-06-15T03:43:07.413Z,4.37
2019-06-15T03:45:34.336Z,4.40
2019-06-15T03:48:01.416Z,4.45
2019-06-15T03:50:28.376Z,3.70
2019-06-15T03:52:55.210Z,4.40
2019-06-15T03:55:22.034Z,4.67
2019-06-15T03:57:48.862Z,3.67
2019-06-15T04:00:37.809Z,3.60
2019-06-15T04:03:04.608Z,4.77
2019-06-15T04:05:31.392Z,4.67
2019-06-15T04:07:58.224Z,5.17
2019-06-15T04:10:25.154Z,4.60
2019-06-15T04:12:52.024Z,4.80
2019-06-15T04:15:18.812Z,5.00
2019-06-15T04:17:46.140Z,4.67
2019-06-15T04:20:13.541Z,3.80
2019-06-15T04:22:40.373Z,4.60
2019-06-15T04:25:07.196Z,4.80
2019-06-15T04:27:34.016Z,4.20
2019-06-15T04:30:00.802Z,4.10
2019-06-15T04:32:27.620Z,4.80
2019-06-15T04:34:54.461Z,4.58
2019-06-15T04:37:21.240Z,4.47
2019-06-15T04:39:48.573Z,4.25
2019-06-15T04:42:15.366Z,4.20
2019-06-15T04:44:42.193Z,4.40
2019-06-15T04:47:08.980Z,4.00
2019-06-15T04:49:35.761Z,3.70
2019-06-15T04:52:02.638Z,3.80
2019-06-15T04:54:29.505Z,3.72
2019-06-15T04:56:56.832Z,4.95
2019-06-15T04:59:23.624Z,4.55
2019-06-15T05:01:50.467Z,5.20
2019-06-15T05:04:17.275Z,4.20
2019-06-15T05:06:44.086Z,5.30
2019-06-15T05:09:10.874Z,5.10
2019-06-15T05:11:37.696Z,4.45
2019-06-15T05:14:04.496Z,5.62
2019-06-15T05:16:31.316Z,5.10
2019-06-15T05:18:58.106Z,4.00
2019-06-15T05:21:24.933Z,4.70
2019-06-15T05:23:51.769Z,5.08
2019-06-15T05:26:18.567Z,4.22
2019-06-15T05:28:45.389Z,5.70
2019-06-15T05:31:12.165Z,5.03
2019-06-15T05:33:38.999Z,4.15
2019-06-15T05:36:05.825Z,4.70
2019-06-15T05:38:32.610Z,5.58
2019-06-15T05:40:59.636Z,5.30
2019-06-15T05:43:26.467Z,4.75
2019-06-15T05:45:54.149Z,5.00
2019-06-15T05:48:21.014Z,5.10
2019-06-15T05:50:47.791Z,5.10
2019-06-15T05:53:14.624Z,5.63
2019-06-15T05:55:41.744Z,7.60
2019-06-15T05:58:08.640Z,6.12
2019-06-15T06:00:38.664Z,5.73
2019-06-15T06:03:05.436Z,7.10
2019-06-15T06:05:32.220Z,5.53
2019-06-15T06:07:59.061Z,5.72
2019-06-15T06:10:25.865Z,5.90
2019-06-15T06:12:52.894Z,5.33
2019-06-15T06:15:19.824Z,6.40
2019-06-15T06:17:46.674Z,5.30
2019-06-15T06:20:14.641Z,5.72
2019-06-15T06:22:41.430Z,6.10
2019-06-15T06:25:08.545Z,5.40
2019-06-15T06:27:36.746Z,5.80
2019-06-15T06:30:09.322Z,5.50
2019-06-15T06:32:36.149Z,5.85
2019-06-15T06:35:03.940Z,5.70
2019-06-15T06:37:33.514Z,5.37
2019-06-15T06:40:00.508Z,5.35
2019-06-15T06:42:27.356Z,5.53
2019-06-15T06:44:54.137Z,4.95
2019-06-15T06:47:20.918Z,4.85
2019-06-15T06:49:48.344Z,4.55
2019-06-15T06:52:15.137Z,4.33
2019-06-15T06:54:41.968Z,4.90
2019-06-15T06:57:08.793Z,4.97
2019-06-15T06:59:35.578Z,4.35
2019-06-15T07:02:02.400Z,4.90
2019-06-15T07:04:29.183Z,4.85
2019-06-15T07:06:56.015Z,4.28
2019-06-15T07:09:22.851Z,4.50
2019-06-15T07:11:49.721Z,5.00
2019-06-15T07:14:16.549Z,4.60
2019-06-15T07:16:43.481Z,4.55
2019-06-15T07:19:10.914Z,4.40
2019-06-15T07:21:38.573Z,4.50
2019-06-15T07:24:05.353Z,4.12
2019-06-15T07:26:32.197Z,4.13
2019-06-15T07:28:59.011Z,3.80
2019-06-15T07:31:25.793Z,3.77
2019-06-15T07:33:52.633Z,3.20
2019-06-15T07:36:19.423Z,3.00
2019-06-15T07:38:46.257Z,3.43
2019-06-15T07:41:13.043Z,3.87
2019-06-15T07:43:39.869Z,3.47
2019-06-15T07:46:06.653Z,2.92
2019-06-15T07:48:33.656Z,4.10
2019-06-15T07:51:00.581Z,3.50
2019-06-15T07:53:27.369Z,4.10
2019-06-15T07:55:54.198Z,3.27
2019-06-15T07:58:24.438Z,2.90
2019-06-15T08:00:49.737Z,2.67
2019-06-15T08:03:16.530Z,2.60
2019-06-15T08:05:43.366Z,2.90
2019-06-15T08:08:10.157Z,3.42
2019-06-15T08:10:36.989Z,3.70
2019-06-15T08:13:03.832Z,2.80
2019-06-15T08:15:30.633Z,3.02
2019-06-15T08:17:57.579Z,3.37
2019-06-15T08:20:30.733Z,2.58
2019-06-15T08:22:57.668Z,2.72
2019-06-15T08:25:24.555Z,4.12
2019-06-15T08:27:51.577Z,2.95
2019-06-15T08:30:22.075Z,3.27
2019-06-15T08:32:49.044Z,2.52
2019-06-15T08:35:16.007Z,4.28
2019-06-15T08:37:42.903Z,3.27
2019-06-15T08:40:10.586Z,3.70
2019-06-15T08:42:57.628Z,3.30
2019-06-15T08:45:24.907Z,3.42
2019-06-15T08:47:52.264Z,3.33
2019-06-15T08:50:19.244Z,3.40
2019-06-15T08:52:46.159Z,2.85
2019-06-15T08:55:13.240Z,3.02
2019-06-15T08:57:40.609Z,2.55
2019-06-15T09:00:12.048Z,3.35
2019-06-15T09:02:38.898Z,2.95
2019-06-15T09:05:05.924Z,2.55
2019-06-15T09:07:32.705Z,2.67
2019-06-15T09:09:59.537Z,3.30
2019-06-15T09:12:26.366Z,2.83
2019-06-15T09:14:53.144Z,2.90
2019-06-15T09:17:19.986Z,4.03
2019-06-15T09:19:46.760Z,2.70
2019-06-15T09:22:13.847Z,3.25
2019-06-15T09:24:40.677Z,2.67
2019-06-15T09:27:07.505Z,3.70
2019-06-15T09:29:34.288Z,4.00
2019-06-15T09:32:01.124Z,3.40
2019-06-15T09:34:27.937Z,3.42
2019-06-15T09:36:54.784Z,3.30
2019-06-15T09:39:21.568Z,3.02
2019-06-15T09:41:48.402Z,2.80
2019-06-15T09:44:15.197Z,3.00
2019-06-15T09:46:42.025Z,3.30
2019-06-15T09:49:08.814Z,2.90
2019-06-15T09:51:35.624Z,3.00
2019-06-15T09:54:02.418Z,3.20
2019-06-15T09:56:29.240Z,2.53
2019-06-15T09:58:56.072Z,3.35
2019-06-15T10:01:23.018Z,3.30
2019-06-15T10:03:49.829Z,2.70
2019-06-15T10:06:16.628Z,3.30
2019-06-15T10:08:43.408Z,3.70
2019-06-15T10:11:10.285Z,3.02
2019-06-15T10:13:37.076Z,2.90
2019-06-15T10:16:03.910Z,3.08
2019-06-15T10:18:30.701Z,2.50
2019-06-15T10:20:57.470Z,4.07
2019-06-15T10:23:24.312Z,3.60
2019-06-15T10:25:54.102Z,2.90
2019-06-15T10:28:19.754Z,2.80
2019-06-15T10:30:46.537Z,3.30
2019-06-15T10:33:13.374Z,3.08
2019-06-15T10:35:40.155Z,3.17
2019-06-15T10:38:06.982Z,3.30
2019-06-15T10:40:33.765Z,3.20
2019-06-15T10:43:00.920Z,2.92
2019-06-15T10:45:27.693Z,2.87
2019-06-15T10:47:54.484Z,3.42
2019-06-15T10:50:21.313Z,3.47
2019-06-15T10:52:48.101Z,2.90
2019-06-15T10:55:14.997Z,3.30
2019-06-15T10:57:41.777Z,3.40
2019-06-15T11:00:10.989Z,3.00
2019-06-15T11:02:38.271Z,3.00
2019-06-15T11:05:05.928Z,3.30
2019-06-15T11:07:32.725Z,4.00
2019-06-15T11:09:59.666Z,3.10
2019-06-15T11:12:26.453Z,2.60
2019-06-15T11:14:53.281Z,3.12
2019-06-15T11:17:20.565Z,2.60
2019-06-15T11:19:47.402Z,3.20
2019-06-15T11:22:14.236Z,3.30
2019-06-15T11:24:41.044Z,2.62
2019-06-15T11:27:08.434Z,3.03
2019-06-15T11:29:35.225Z,2.80
2019-06-15T11:32:02.104Z,3.60
2019-06-15T11:34:28.861Z,2.87
2019-06-15T11:36:55.694Z,3.00
2019-06-15T11:39:22.580Z,3.00
2019-06-15T11:41:49.600Z,3.90
2019-06-15T11:44:16.449Z,3.20
2019-06-15T11:46:43.237Z,3.10
2019-06-15T11:49:10.031Z,3.30
2019-06-15T11:51:36.898Z,2.97
2019-06-15T11:54:03.691Z,3.00
2019-06-15T11:56:30.520Z,3.37
2019-06-15T11:58:57.305Z,2.83
2019-06-15T12:01:24.142Z,2.50
2019-06-15T12:03:50.984Z,3.27
2019-06-15T12:06:17.915Z,2.80
2019-06-15T12:08:44.850Z,3.12
2019-06-15T12:11:11.633Z,3.77
2019-06-15T12:13:38.460Z,4.80
2019-06-15T12:16:05.246Z,3.87
2019-06-15T12:18:32.028Z,3.00
2019-06-15T12:20:58.853Z,3.65
2019-06-15T12:23:25.651Z,3.30
2019-06-15T12:25:52.468Z,2.77
2019-06-15T12:28:19.748Z,2.70
2019-06-15T12:30:47.824Z,2.30
2019-06-15T12:33:14.892Z,3.00
2019-06-15T12:35:41.648Z,2.95
2019-06-15T12:38:08.479Z,3.40
2019-06-15T12:40:35.269Z,2.77
2019-06-15T12:43:02.109Z,3.05
2019-06-15T12:45:28.897Z,3.00
2019-06-15T12:47:55.734Z,2.60
2019-06-15T12:50:22.529Z,3.00
2019-06-15T12:52:49.368Z,3.25
2019-06-15T12:55:16.154Z,3.50
2019-06-15T12:57:42.933Z,2.52
2019-06-15T13:00:13.078Z,2.87
2019-06-15T13:02:40.217Z,3.10
2019-06-15T13:05:07.143Z,2.98
2019-06-15T13:07:33.924Z,2.70
2019-06-15T13:10:00.764Z,2.30
2019-06-15T13:12:27.599Z,2.67
2019-06-15T13:14:54.421Z,3.30
2019-06-15T13:17:21.201Z,3.08
2019-06-15T13:19:48.032Z,3.30
2019-06-15T13:22:14.827Z,2.83
2019-06-15T13:24:41.657Z,2.80
2019-06-15T13:27:08.485Z,3.52
2019-06-15T13:29:35.331Z,2.70
2019-06-15T13:32:02.110Z,2.60
2019-06-15T13:34:28.956Z,2.90
2019-06-15T13:36:55.748Z,2.40
2019-06-15T13:39:22.532Z,3.00
2019-06-15T13:41:49.404Z,2.50
2019-06-15T13:44:16.192Z,2.40
2019-06-15T13:46:43.025Z,2.85
2019-06-15T13:49:11.010Z,3.08
2019-06-15T13:51:37.866Z,2.60
2019-06-15T13:54:04.690Z,2.90
2019-06-15T13:56:31.468Z,2.70
2019-06-15T13:58:58.297Z,2.67
2019-06-15T14:01:33.992Z,2.50
2019-06-15T14:03:53.724Z,2.55
2019-06-15T14:06:20.557Z,2.70
2019-06-15T14:08:47.339Z,2.80
2019-06-15T14:11:14.185Z,2.17
2019-06-15T14:13:41.023Z,2.80
2019-06-15T14:16:07.854Z,2.60
2019-06-15T14:18:34.637Z,2.20
2019-06-15T14:21:01.460Z,2.33
2019-06-15T14:23:28.258Z,2.37
2019-06-15T14:25:55.092Z,3.10
2019-06-15T14:28:21.931Z,2.25
2019-06-15T14:30:48.712Z,2.60
2019-06-15T14:33:15.543Z,2.20
2019-06-15T14:35:44.049Z,2.30
2019-06-15T14:38:10.978Z,2.52
2019-06-15T14:40:37.771Z,2.50
2019-06-15T14:43:04.564Z,2.37
2019-06-15T14:45:31.413Z,2.90
2019-06-15T14:47:58.495Z,2.90
2019-06-15T14:50:25.284Z,2.40
2019-06-15T14:52:52.164Z,3.52
2019-06-15T14:55:18.940Z,2.70
2019-06-15T14:57:45.761Z,2.90
2019-06-15T15:00:17.435Z,2.80
2019-06-15T15:02:46.675Z,2.60
2019-06-15T15:05:14.783Z,2.25
2019-06-15T15:07:41.843Z,3.25
2019-06-15T15:10:09.325Z,3.00
2019-06-15T15:12:36.947Z,2.40
2019-06-15T15:15:07.619Z,2.60
2019-06-15T15:17:37.025Z,2.12
2019-06-15T15:20:07.179Z,3.50
2019-06-15T15:22:33.767Z,2.40
2019-06-15T15:25:00.595Z,3.40
2019-06-15T15:27:27.436Z,2.85
2019-06-15T15:29:56.774Z,2.30
2019-06-15T15:32:27.101Z,3.05
2019-06-15T15:34:51.545Z,3.60
2019-06-15T15:37:18.381Z,2.93
2019-06-15T15:39:46.957Z,2.70
2019-06-15T15:42:13.749Z,3.37
2019-06-15T15:44:40.586Z,2.60
2019-06-15T15:47:07.443Z,2.80
2019-06-15T15:49:36.518Z,2.30
2019-06-15T15:52:02.960Z,2.22
2019-06-15T15:54:29.753Z,3.58
2019-06-15T15:56:56.580Z,4.53
2019-06-15T15:59:23.364Z,5.35
2019-06-15T16:01:50.195Z,8.95
2019-06-15T16:04:17.154Z,2.40
2019-06-15T16:06:46.636Z,2.80
2019-06-15T16:09:12.689Z,8.60
2019-06-15T16:11:39.476Z,2.72
2019-06-15T16:14:07.204Z,2.67
2019-06-15T16:16:36.314Z,2.40
2019-06-15T16:19:02.772Z,2.58
2019-06-15T16:21:29.563Z,2.62
2019-06-15T16:23:58.411Z,2.63
2019-06-15T16:26:27.196Z,2.80
2019-06-15T16:28:53.597Z,2.90
2019-06-15T16:31:25.704Z,3.90
2019-06-15T16:33:49.104Z,4.00
2019-06-15T16:36:15.938Z,2.40
2019-06-15T16:38:42.730Z,2.50
2019-06-15T16:41:09.556Z,2.40
2019-06-15T16:43:37.068Z,3.22
2019-06-15T16:46:06.313Z,2.33
2019-06-15T16:48:32.769Z,4.25
2019-06-15T16:51:00.102Z,2.35
2019-06-15T16:53:26.946Z,2.15
2019-06-15T16:55:53.784Z,2.50
2019-06-15T16:58:20.589Z,2.50
2019-06-15T17:00:47.905Z,2.50
2019-06-15T17:03:22.006Z,2.65
2019-06-15T17:05:46.391Z,2.00
2019-06-15T17:08:12.562Z,2.15
2019-06-15T17:10:40.450Z,2.55
2019-06-15T17:13:07.533Z,1.90
2019-06-15T17:15:36.877Z,2.40
2019-06-15T17:18:03.114Z,2.45
2019-06-15T17:20:42.068Z,2.20
2019-06-15T17:23:08.854Z,2.20
2019-06-15T17:25:36.264Z,2.40
2019-06-15T17:28:03.184Z,2.40
2019-06-15T17:30:30.043Z,2.30
2019-06-15T17:32:56.853Z,2.17
2019-06-15T17:35:23.638Z,2.40
2019-06-15T17:37:50.473Z,2.25
2019-06-15T17:40:17.412Z,2.50
2019-06-15T17:42:44.197Z,2.55
2019-06-15T17:45:11.948Z,2.27
2019-06-15T17:47:38.737Z,2.40
2019-06-15T17:50:07.472Z,2.50
2019-06-15T17:52:36.043Z,2.25
2019-06-15T17:55:07.172Z,2.72
2019-06-15T17:57:35.924Z,2.50
2019-06-15T18:00:05.253Z,2.70
2019-06-15T18:02:32.138Z,2.57
2019-06-15T18:04:58.917Z,2.40
2019-06-15T18:07:26.254Z,2.40
2019-06-15T18:09:53.248Z,2.92
2019-06-15T18:12:20.745Z,2.40
2019-06-15T18:14:47.829Z,3.00
2019-06-15T18:17:17.034Z,2.83
2019-06-15T18:19:43.302Z,2.77
2019-06-15T18:22:10.125Z,2.83
2019-06-15T18:24:37.314Z,2.80
2019-06-15T18:27:07.110Z,2.80
2019-06-15T18:29:33.208Z,2.47
2019-06-15T18:32:00.312Z,2.55
2019-06-15T18:34:27.115Z,2.43
2019-06-15T18:36:56.053Z,2.60
2019-06-15T18:39:22.596Z,2.60
2019-06-15T18:41:49.858Z,2.40
2019-06-15T18:44:16.697Z,2.77
2019-06-15T18:46:43.480Z,2.40
2019-06-15T18:49:10.317Z,2.30
2019-06-15T18:51:37.096Z,2.40
2019-06-15T18:54:03.894Z,2.20
2019-06-15T18:56:30.765Z,2.33
2019-06-15T18:58:57.546Z,2.40
2019-06-15T19:01:26.906Z,2.60
2019-06-15T19:03:52.973Z,2.47
2019-06-15T19:06:20.212Z,2.95
2019-06-15T19:08:47.079Z,2.60
2019-06-15T19:11:16.351Z,2.27
2019-06-15T19:13:42.567Z,1.85
2019-06-15T19:16:09.345Z,2.30
2019-06-15T19:18:36.986Z,2.50
2019-06-15T19:21:06.798Z,2.10
2019-06-15T19:23:32.785Z,2.20
2019-06-15T19:25:59.629Z,2.30
2019-06-15T19:28:26.848Z,2.22
2019-06-15T19:30:55.897Z,2.42
2019-06-15T19:33:22.339Z,2.30
2019-06-15T19:35:49.220Z,2.20
2019-06-15T19:38:16.323Z,2.40
2019-06-15T19:40:45.684Z,1.87
2019-06-15T19:43:11.979Z,2.52
2019-06-15T19:45:38.764Z,2.37
2019-06-15T19:48:06.632Z,2.20
2019-06-15T19:50:35.971Z,2.05
2019-06-15T19:53:02.472Z,2.30
2019-06-15T19:55:29.309Z,2.15
2019-06-15T19:57:56.845Z,2.45
2019-06-15T20:00:23.964Z,1.90
2019-06-15T20:02:50.728Z,2.00
2019-06-15T20:05:17.609Z,2.10
2019-06-15T20:07:46.528Z,2.30
2019-06-15T20:10:13.384Z,2.53
2019-06-15T20:12:40.213Z,1.82
2019-06-15T20:15:07.247Z,2.35
2019-06-15T20:17:36.625Z,2.20
2019-06-15T20:20:07.007Z,1.90
2019-06-15T20:22:37.011Z,2.40
2019-06-15T20:25:06.623Z,2.12
2019-06-15T20:27:33.715Z,2.10
2019-06-15T20:30:00.528Z,1.92
2019-06-15T20:32:27.344Z,2.20
2019-06-15T20:34:54.125Z,2.12
2019-06-15T20:37:22.860Z,1.90
2019-06-15T20:39:49.646Z,2.10
2019-06-15T20:42:16.629Z,2.00
2019-06-15T20:44:46.002Z,1.85
2019-06-15T20:47:12.111Z,1.90
2019-06-15T20:49:38.945Z,1.90
2019-06-15T20:52:07.077Z,2.00
2019-06-15T20:54:34.201Z,2.12
2019-06-15T20:57:01.193Z,2.12
2019-06-15T20:59:28.046Z,1.87
2019-06-15T21:01:56.281Z,1.80
2019-06-15T21:04:23.334Z,2.00
2019-06-15T21:06:50.156Z,2.27
2019-06-15T21:09:18.805Z,1.90
2019-06-15T21:11:45.553Z,2.20
2019-06-15T21:14:12.437Z,1.50
2019-06-15T21:16:39.274Z,1.72
2019-06-15T21:19:06.699Z,2.00
2019-06-15T21:21:33.609Z,2.00
2019-06-15T21:24:00.404Z,1.77
2019-06-15T21:26:27.229Z,1.62
2019-06-15T21:28:56.480Z,1.72
2019-06-15T21:31:23.041Z,1.90
2019-06-15T21:33:49.877Z,2.00
2019-06-15T21:36:16.705Z,2.20
2019-06-15T21:38:43.496Z,1.98
2019-06-15T21:41:10.335Z,2.00
2019-06-15T21:43:37.130Z,1.90
2019-06-15T21:46:06.169Z,1.90
2019-06-15T21:48:32.536Z,1.80
2019-06-15T21:50:59.746Z,1.90
2019-06-15T21:53:26.789Z,1.70
2019-06-15T21:55:56.158Z,2.00
2019-06-15T21:58:22.599Z,1.90
2019-06-15T22:00:56.830Z,1.67
2019-06-15T22:03:26.264Z,1.77
2019-06-15T22:06:02.933Z,2.20
2019-06-15T22:08:21.097Z,1.70
2019-06-15T22:10:47.885Z,1.98
2019-06-15T22:13:15.979Z,2.10
2019-06-15T22:15:43.040Z,2.10
2019-06-15T22:18:09.873Z,2.25
2019-06-15T22:20:36.652Z,2.70
2019-06-15T22:23:03.477Z,2.42
2019-06-15T22:25:30.261Z,2.40
2019-06-15T22:27:57.128Z,2.40
2019-06-15T22:30:23.953Z,2.87
2019-06-15T22:32:51.029Z,2.72
2019-06-15T22:35:17.861Z,1.90
2019-06-15T22:37:46.814Z,2.40
2019-06-15T22:40:16.374Z,2.00
2019-06-15T22:42:42.225Z,2.80
2019-06-15T22:45:09.664Z,1.85
2019-06-15T22:47:36.444Z,1.77
2019-06-15T22:50:07.119Z,1.60
2019-06-15T22:52:36.244Z,1.45
2019-06-15T22:55:06.368Z,1.50
2019-06-15T22:57:33.170Z,1.27
2019-06-15T23:00:00.316Z,1.30
2019-06-15T23:02:27.478Z,1.40
2019-06-15T23:04:56.455Z,1.40
2019-06-15T23:07:22.915Z,1.52
2019-06-15T23:09:49.744Z,1.90
2019-06-15T23:12:16.616Z,1.60
2019-06-15T23:14:43.484Z,1.85
2019-06-15T23:17:10.266Z,1.40
2019-06-15T23:19:37.093Z,1.40
2019-06-15T23:22:03.874Z,1.65
2019-06-15T23:24:30.713Z,1.32
2019-06-15T23:26:57.505Z,1.80
2019-06-15T23:29:24.341Z,1.25
2019-06-15T23:31:51.185Z,1.65
2019-06-15T23:34:18.026Z,1.70
2019-06-15T23:36:54.163Z,1.92
2019-06-15T23:39:16.484Z,1.80
2019-06-15T23:41:43.482Z,2.00
2019-06-15T23:44:10.308Z,2.05
2019-06-15T23:46:37.108Z,1.90
2019-06-15T23:49:03.947Z,2.30
2019-06-15T23:51:30.730Z,2.17
2019-06-15T23:53:57.520Z,2.10
2019-06-15T23:56:26.013Z,2.10
2019-06-15T23:58:53.044Z,2.35
